LiveATC.Net - Listen to live air traffic control over the Internet!


ICAO: YADG  IATA:   Airport: Aldinga Airport
City: Sellicks Hill   State/Province: South Australia
Country: Australia   Continent: Oceania
YPAD METAR Weather: YPAD 210100Z 01010KT 9999 FEW030 SCT047 BKN054 12/08 Q1023 FM0200 35013KT 9999 SCT040
YADG Flight Activity (FlightAware)

YADG CTAF
Feed Status: UP   Listeners: 0
Listen right in your browser - requires Flash (in browser, requires Flash)
Click here to listen with your own player (launches your MP3 player)
YADG CTAF Audio Archives
FacilityFrequency
Aldinga CTAF127.150

NOTICE

Unauthorized use prohibited. See LiveATC.net Terms of Service


Find LiveATC Audio Streams


Airport/ARTCC Code

Frequency Search
(e.g., 124.400, 128.75)
Site-wide search
 


Browse LiveATC Feeds
Top 50 LiveATC Feeds
Bad Weather Areas

LiveATC FAQ
Offer a LiveATC Feed
Contact LiveATC.net
Press Inquiries

LiveATC on iPhone
LiveATC on Android

Windows Phone
Windows 8/10

LiveATC Mobile
(Mobile browser)

ATC Audio Archives
Interesting Recordings

LiveATC Forums


Home Page
About LiveATC.net
Make a Donation
Terms of Use
Privacy Policy

Canadian Air Freqs

AIRMETs/SIGMETs

FAA Airport Status
Nat'l Airspace Status
Arrival Demand Charts


Server Software By:
Icecast.org
Liquidsoap